createdAt,value
2022-12-11T00:00:10.425Z,-6.00
2022-12-11T00:02:37.440Z,-6.00
2022-12-11T00:05:04.439Z,-6.00
2022-12-11T00:07:31.206Z,-6.10
2022-12-11T00:09:58.131Z,-6.10
2022-12-11T00:12:25.005Z,-6.00
2022-12-11T00:14:52.403Z,-6.00
2022-12-11T00:17:19.350Z,-6.00
2022-12-11T00:19:46.387Z,-6.20
2022-12-11T00:22:13.204Z,-6.10
2022-12-11T00:24:40.026Z,-6.00
2022-12-11T00:27:08.028Z,-6.10
2022-12-11T00:29:35.001Z,-6.10
2022-12-11T00:32:01.964Z,-6.30
2022-12-11T00:34:28.831Z,-6.20
2022-12-11T00:36:55.721Z,-6.30
2022-12-11T00:39:22.531Z,-6.30
2022-12-11T00:41:49.322Z,-6.40
2022-12-11T00:44:16.355Z,-6.50
2022-12-11T00:46:43.153Z,-6.40
2022-12-11T00:49:10.091Z,-6.50
2022-12-11T00:51:37.003Z,-6.50
2022-12-11T00:54:03.993Z,-6.60
2022-12-11T00:56:30.817Z,-6.60
2022-12-11T00:58:57.680Z,-6.60
2022-12-11T01:01:25.932Z,-6.60
2022-12-11T01:03:53.509Z,-6.70
2022-12-11T01:06:22.127Z,-6.70
2022-12-11T01:09:09.491Z,-6.80
2022-12-11T01:11:36.527Z,-6.90
2022-12-11T01:14:03.863Z,-7.00
2022-12-11T01:16:30.730Z,-7.10
2022-12-11T01:18:58.107Z,-7.00
2022-12-11T01:21:25.080Z,-7.00
2022-12-11T01:23:51.881Z,-7.00
2022-12-11T01:26:19.197Z,-6.90
2022-12-11T01:28:48.905Z,-6.90
2022-12-11T01:31:16.887Z,-6.90
2022-12-11T01:33:43.844Z,-6.90
2022-12-11T01:36:15.254Z,-6.90
2022-12-11T01:38:42.343Z,-6.90
2022-12-11T01:41:09.817Z,-7.10
2022-12-11T01:43:55.652Z,-7.10
2022-12-11T01:46:22.534Z,-7.10
2022-12-11T01:48:49.388Z,-7.10
2022-12-11T01:51:16.651Z,-7.10
2022-12-11T01:53:45.880Z,-7.00
2022-12-11T01:56:13.328Z,-7.10
2022-12-11T01:58:52.536Z,-7.00
2022-12-11T02:01:22.848Z,-7.00
2022-12-11T02:03:50.942Z,-7.00
2022-12-11T02:06:33.131Z,-6.90
2022-12-11T02:09:00.661Z,-6.90
2022-12-11T02:11:47.750Z,-6.90
2022-12-11T02:14:37.865Z,-6.90
2022-12-11T02:17:13.938Z,-6.80
2022-12-11T02:19:55.504Z,-6.90
2022-12-11T02:22:38.838Z,-6.90
2022-12-11T02:25:12.038Z,-6.90
2022-12-11T02:27:43.364Z,-6.90
2022-12-11T02:30:13.949Z,-6.90
2022-12-11T02:32:40.843Z,-6.90
2022-12-11T02:35:07.986Z,-7.00
2022-12-11T02:37:35.996Z,-7.00
2022-12-11T02:40:05.240Z,-7.00
2022-12-11T02:42:33.079Z,-6.90
2022-12-11T02:45:01.681Z,-6.90
2022-12-11T02:47:29.855Z,-6.90
2022-12-11T02:49:57.749Z,-6.90
2022-12-11T02:52:25.678Z,-6.90
2022-12-11T02:54:54.421Z,-6.80
2022-12-11T02:57:21.363Z,-6.80
2022-12-11T02:59:48.418Z,-6.70
2022-12-11T03:02:16.609Z,-6.60
2022-12-11T03:04:44.702Z,-6.70
2022-12-11T03:07:16.150Z,-6.60
2022-12-11T03:09:43.955Z,-6.60
2022-12-11T03:12:12.984Z,-6.60
2022-12-11T03:14:40.554Z,-6.60
2022-12-11T03:17:07.287Z,-6.60
2022-12-11T03:19:43.204Z,-6.60
2022-12-11T03:22:17.038Z,-6.50
2022-12-11T03:24:44.083Z,-6.50
2022-12-11T03:27:16.987Z,-6.40
2022-12-11T03:29:48.338Z,-6.40
2022-12-11T03:32:20.034Z,-6.40
2022-12-11T03:34:54.533Z,-6.40
2022-12-11T03:37:26.363Z,-6.30
2022-12-11T03:39:56.945Z,-6.30
2022-12-11T03:42:24.989Z,-6.30
2022-12-11T03:44:53.403Z,-6.30
2022-12-11T03:47:21.683Z,-6.30
2022-12-11T03:49:49.032Z,-6.30
2022-12-11T03:52:17.195Z,-6.30
2022-12-11T03:54:45.936Z,-6.30
2022-12-11T03:57:15.186Z,-6.30
2022-12-11T03:59:42.162Z,-6.30
2022-12-11T04:02:10.985Z,-6.20
2022-12-11T04:04:38.989Z,-6.20
2022-12-11T04:07:05.803Z,-6.10
2022-12-11T04:09:32.943Z,-6.10
2022-12-11T04:12:00.531Z,-6.00
2022-12-11T04:14:46.055Z,-6.10
2022-12-11T04:17:12.914Z,-6.10
2022-12-11T04:19:58.355Z,-6.10
2022-12-11T04:22:43.719Z,-6.10
2022-12-11T04:25:10.856Z,-6.10
2022-12-11T04:27:49.916Z,-6.10
2022-12-11T04:30:18.698Z,-6.10
2022-12-11T04:32:45.509Z,-6.10
2022-12-11T04:35:13.226Z,-6.10
2022-12-11T04:37:40.610Z,-6.00
2022-12-11T04:40:08.919Z,-6.00
2022-12-11T04:42:35.791Z,-5.90
2022-12-11T04:45:02.573Z,-6.00
2022-12-11T04:47:29.434Z,-6.00
2022-12-11T04:49:56.324Z,-6.00
2022-12-11T04:52:23.254Z,-5.90
2022-12-11T04:54:51.602Z,-5.90
2022-12-11T04:57:18.378Z,-5.90
2022-12-11T04:59:45.390Z,-5.90
2022-12-11T05:02:12.286Z,-5.90
2022-12-11T05:04:39.422Z,-5.80
2022-12-11T05:07:06.302Z,-5.80
2022-12-11T05:09:33.205Z,-5.80
2022-12-11T05:12:00.044Z,-5.80
2022-12-11T05:14:27.642Z,-5.70
2022-12-11T05:16:54.541Z,-5.70
2022-12-11T05:19:21.381Z,-5.70
2022-12-11T05:21:48.174Z,-5.70
2022-12-11T05:24:15.260Z,-5.70
2022-12-11T05:26:42.421Z,-5.70
2022-12-11T05:29:09.369Z,-5.60
2022-12-11T05:31:36.307Z,-5.60
2022-12-11T05:34:03.491Z,-5.70
2022-12-11T05:36:31.858Z,-5.60
2022-12-11T05:38:59.157Z,-5.70
2022-12-11T05:41:27.946Z,-5.70
2022-12-11T05:43:54.937Z,-5.60
2022-12-11T05:46:23.025Z,-5.60
2022-12-11T05:48:50.741Z,-5.60
2022-12-11T05:51:18.356Z,-5.60
2022-12-11T05:53:45.876Z,-5.60
2022-12-11T05:56:14.315Z,-5.60
2022-12-11T05:58:41.634Z,-5.50
2022-12-11T06:01:09.618Z,-5.60
2022-12-11T06:03:36.774Z,-5.50
2022-12-11T06:06:07.166Z,-5.50
2022-12-11T06:08:34.644Z,-5.40
2022-12-11T06:11:01.498Z,-5.40
2022-12-11T06:13:28.400Z,-5.40
2022-12-11T06:15:55.677Z,-5.40
2022-12-11T06:18:22.517Z,-5.50
2022-12-11T06:20:49.371Z,-5.40
2022-12-11T06:23:16.266Z,-5.30
2022-12-11T06:25:43.081Z,-5.30
2022-12-11T06:28:09.911Z,-5.20
2022-12-11T06:30:37.612Z,-5.20
2022-12-11T06:33:05.681Z,-5.20
2022-12-11T06:35:35.137Z,-5.10
2022-12-11T06:38:07.089Z,-5.10
2022-12-11T06:40:34.105Z,-5.00
2022-12-11T06:43:00.978Z,-5.00
2022-12-11T06:45:27.787Z,-5.00
2022-12-11T06:47:54.784Z,-4.90
2022-12-11T06:50:21.745Z,-4.90
2022-12-11T06:52:48.583Z,-4.80
2022-12-11T06:55:15.472Z,-4.80
2022-12-11T06:57:42.365Z,-4.80
2022-12-11T07:00:09.539Z,-4.70
2022-12-11T07:02:36.379Z,-4.70
2022-12-11T07:05:03.642Z,-4.70
2022-12-11T07:07:30.495Z,-4.80
2022-12-11T07:09:58.656Z,-4.80
2022-12-11T07:12:27.405Z,-4.70
2022-12-11T07:14:54.162Z,-4.70
2022-12-11T07:17:21.004Z,-4.70
2022-12-11T07:19:48.002Z,-4.60
2022-12-11T07:22:15.006Z,-4.60
2022-12-11T07:24:42.037Z,-4.60
2022-12-11T07:27:09.586Z,-4.60
2022-12-11T07:29:36.376Z,-4.60
2022-12-11T07:32:03.508Z,-4.60
2022-12-11T07:34:30.431Z,-4.60
2022-12-11T07:36:57.218Z,-4.60
2022-12-11T07:39:24.291Z,-4.50
2022-12-11T07:41:51.279Z,-4.50
2022-12-11T07:44:18.359Z,-4.50
2022-12-11T07:46:45.339Z,-4.50
2022-12-11T07:49:12.284Z,-4.40
2022-12-11T07:51:39.199Z,-4.40
2022-12-11T07:54:07.249Z,-4.50
2022-12-11T07:56:34.231Z,-4.50
2022-12-11T07:59:02.197Z,-4.50
2022-12-11T08:01:29.939Z,-4.40
2022-12-11T08:03:56.872Z,-4.30
2022-12-11T08:06:31.463Z,-4.30
2022-12-11T08:08:59.256Z,-4.20
2022-12-11T08:11:26.350Z,-4.30
2022-12-11T08:13:53.219Z,-4.30
2022-12-11T08:16:20.476Z,-4.30
2022-12-11T08:18:47.881Z,-4.40
2022-12-11T08:21:15.947Z,-4.40
2022-12-11T08:23:43.100Z,-4.40
2022-12-11T08:26:12.742Z,-4.40
2022-12-11T08:28:39.624Z,-4.30
2022-12-11T08:31:10.054Z,-4.30
2022-12-11T08:33:37.717Z,-4.40
2022-12-11T08:36:05.473Z,-4.30
2022-12-11T08:38:32.296Z,-4.30
2022-12-11T08:40:59.411Z,-4.30
2022-12-11T08:43:26.206Z,-4.20
2022-12-11T08:45:53.362Z,-4.30
2022-12-11T08:48:20.139Z,-4.20
2022-12-11T08:50:47.015Z,-4.20
2022-12-11T08:53:13.985Z,-4.20
2022-12-11T08:55:41.074Z,-4.20
2022-12-11T08:58:08.016Z,-4.20
2022-12-11T09:00:35.050Z,-4.10
2022-12-11T09:03:01.967Z,-4.20
2022-12-11T09:05:28.747Z,-4.20
2022-12-11T09:07:55.728Z,-4.30
2022-12-11T09:10:22.572Z,-4.30
2022-12-11T09:12:49.519Z,-4.20
2022-12-11T09:15:16.560Z,-4.30
2022-12-11T09:17:43.771Z,-4.30
2022-12-11T09:20:10.805Z,-4.30
2022-12-11T09:22:37.739Z,-4.20
2022-12-11T09:25:05.011Z,-4.30
2022-12-11T09:27:32.079Z,-4.30
2022-12-11T09:29:59.108Z,-4.30
2022-12-11T09:32:26.140Z,-4.20
2022-12-11T09:34:53.073Z,-4.30
2022-12-11T09:37:20.019Z,-4.30
2022-12-11T09:39:46.929Z,-4.20
2022-12-11T09:42:20.600Z,-4.20
2022-12-11T09:44:49.934Z,-4.30
2022-12-11T09:47:34.718Z,-4.20
2022-12-11T09:50:10.765Z,-4.20
2022-12-11T09:52:37.692Z,-4.10
2022-12-11T09:55:16.482Z,-4.10
2022-12-11T09:57:51.093Z,-4.20
2022-12-11T10:00:24.721Z,-4.20
2022-12-11T10:03:03.530Z,-4.20
2022-12-11T10:05:45.355Z,-4.20
2022-12-11T10:08:17.882Z,-4.10
2022-12-11T10:11:00.682Z,-4.10
2022-12-11T10:13:50.148Z,-4.10
2022-12-11T10:16:24.416Z,-4.10
2022-12-11T10:18:51.381Z,-4.00
2022-12-11T10:21:18.904Z,-4.10
2022-12-11T10:23:59.368Z,-4.00
2022-12-11T10:26:28.046Z,-4.00
2022-12-11T10:28:59.218Z,-4.10
2022-12-11T10:31:34.925Z,-4.10
2022-12-11T10:34:03.142Z,-4.00
2022-12-11T10:36:35.386Z,-3.90
2022-12-11T10:39:02.867Z,-3.90
2022-12-11T10:41:48.638Z,-4.00
2022-12-11T10:44:20.594Z,-3.90
2022-12-11T10:46:48.821Z,-3.90
2022-12-11T10:49:26.352Z,-3.80
2022-12-11T10:51:54.668Z,-3.80
2022-12-11T10:54:30.357Z,-3.80
2022-12-11T10:56:58.166Z,-3.80
2022-12-11T10:59:28.502Z,-3.80
2022-12-11T11:01:55.474Z,-3.80
2022-12-11T11:04:26.610Z,-3.90
2022-12-11T11:07:12.853Z,-3.80
2022-12-11T11:09:40.279Z,-3.90
2022-12-11T11:12:18.167Z,-3.90
2022-12-11T11:14:45.110Z,-3.80
2022-12-11T11:17:16.032Z,-3.80
2022-12-11T11:19:46.127Z,-3.80
2022-12-11T11:22:14.578Z,-3.80
2022-12-11T11:24:42.789Z,-3.80
2022-12-11T11:27:24.823Z,-3.80
2022-12-11T11:29:54.271Z,-3.80
2022-12-11T11:32:23.698Z,-3.70
2022-12-11T11:34:50.529Z,-3.80
2022-12-11T11:37:33.044Z,-3.80
2022-12-11T11:40:23.129Z,-3.90
2022-12-11T11:42:55.999Z,-3.90
2022-12-11T11:45:24.951Z,-3.90
2022-12-11T11:47:58.051Z,-3.90
2022-12-11T11:50:27.284Z,-3.90
2022-12-11T11:53:10.863Z,-4.00
2022-12-11T11:55:57.150Z,-4.00
2022-12-11T11:58:31.695Z,-4.00
2022-12-11T12:00:58.576Z,-4.00
2022-12-11T12:03:25.738Z,-4.00
2022-12-11T12:05:58.002Z,-4.00
2022-12-11T12:08:31.343Z,-3.90
2022-12-11T12:11:21.346Z,-4.10
2022-12-11T12:14:12.873Z,-4.10
2022-12-11T12:16:59.535Z,-4.10
2022-12-11T12:19:44.975Z,-4.00
2022-12-11T12:22:17.753Z,-4.10
2022-12-11T12:25:07.248Z,-4.20
2022-12-11T12:27:53.417Z,-4.10
2022-12-11T12:30:23.406Z,-4.10
2022-12-11T12:33:08.405Z,-4.10
2022-12-11T12:35:36.716Z,-4.10
2022-12-11T12:38:15.870Z,-4.20
2022-12-11T12:40:55.675Z,-4.20
2022-12-11T12:43:37.021Z,-4.20
2022-12-11T12:46:03.906Z,-4.20
2022-12-11T12:48:31.085Z,-4.20
2022-12-11T12:50:58.178Z,-4.10
2022-12-11T12:53:27.710Z,-4.00
2022-12-11T12:55:54.781Z,-4.00
2022-12-11T12:58:26.862Z,-4.00
2022-12-11T13:00:54.007Z,-4.10
2022-12-11T13:03:22.426Z,-4.20
2022-12-11T13:06:08.133Z,-4.20
2022-12-11T13:08:38.557Z,-4.30
2022-12-11T13:11:07.532Z,-4.20
2022-12-11T13:13:34.360Z,-4.30
2022-12-11T13:16:08.757Z,-4.30
2022-12-11T13:18:39.584Z,-4.30
2022-12-11T13:21:25.332Z,-4.30
2022-12-11T13:23:52.449Z,-4.20
2022-12-11T13:26:33.047Z,-4.20
2022-12-11T13:28:59.948Z,-4.20
2022-12-11T13:31:26.788Z,-4.20
2022-12-11T13:33:55.644Z,-4.20
2022-12-11T13:36:33.752Z,-4.10
2022-12-11T13:39:22.853Z,-4.10
2022-12-11T13:41:54.974Z,-4.10
2022-12-11T13:44:24.685Z,-4.20
2022-12-11T13:46:52.560Z,-4.10
2022-12-11T13:49:24.546Z,-4.20
2022-12-11T13:51:52.795Z,-4.20
2022-12-11T13:54:19.810Z,-4.20
2022-12-11T13:56:56.879Z,-4.20
2022-12-11T13:59:26.067Z,-4.20
2022-12-11T14:01:54.265Z,-4.20
2022-12-11T14:04:21.941Z,-4.20
2022-12-11T14:06:49.431Z,-4.20
2022-12-11T14:09:20.998Z,-4.20
2022-12-11T14:11:53.531Z,-4.20
2022-12-11T14:14:26.305Z,-4.20
2022-12-11T14:16:53.282Z,-4.20
2022-12-11T14:19:21.676Z,-4.30
2022-12-11T14:21:55.535Z,-4.20
2022-12-11T14:24:22.361Z,-4.10
2022-12-11T14:26:53.489Z,-4.20
2022-12-11T14:29:26.208Z,-4.20
2022-12-11T14:31:53.623Z,-4.20
2022-12-11T14:34:25.711Z,-4.20
2022-12-11T14:36:53.729Z,-4.30
2022-12-11T14:39:29.051Z,-4.20
2022-12-11T14:42:10.667Z,-4.20
2022-12-11T14:44:58.242Z,-4.20
2022-12-11T14:47:27.403Z,-4.20
2022-12-11T14:49:58.761Z,-4.20
2022-12-11T14:52:44.448Z,-4.30
2022-12-11T14:55:14.143Z,-4.20
2022-12-11T14:57:43.357Z,-4.20
2022-12-11T15:00:21.365Z,-4.20
2022-12-11T15:02:56.669Z,-4.10
2022-12-11T15:05:23.655Z,-4.10
2022-12-11T15:07:55.089Z,-4.10
2022-12-11T15:10:26.437Z,-4.10
2022-12-11T15:12:53.783Z,-4.20
2022-12-11T15:15:20.852Z,-4.20
2022-12-11T15:17:52.726Z,-4.20
2022-12-11T15:20:24.609Z,-4.20
2022-12-11T15:22:51.955Z,-4.10
2022-12-11T15:25:29.044Z,-4.10
2022-12-11T15:27:57.313Z,-4.20
2022-12-11T15:30:35.210Z,-4.20
2022-12-11T15:33:17.593Z,-4.20
2022-12-11T15:35:53.484Z,-4.20
2022-12-11T15:38:30.169Z,-4.30
2022-12-11T15:40:57.809Z,-4.20
2022-12-11T15:43:24.726Z,-4.30
2022-12-11T15:45:51.649Z,-4.20
2022-12-11T15:48:18.466Z,-4.20
2022-12-11T15:50:45.297Z,-4.20
2022-12-11T15:53:12.267Z,-4.30
2022-12-11T15:55:39.272Z,-4.30
2022-12-11T15:58:13.448Z,-4.40
2022-12-11T16:00:40.432Z,-4.30
2022-12-11T16:03:07.311Z,-4.50
2022-12-11T16:05:34.397Z,-4.50
2022-12-11T16:08:01.525Z,-4.50
2022-12-11T16:10:28.518Z,-4.50
2022-12-11T16:12:59.606Z,-4.50
2022-12-11T16:15:27.082Z,-4.60
2022-12-11T16:18:00.920Z,-4.60
2022-12-11T16:20:27.745Z,-4.60
2022-12-11T16:22:54.672Z,-4.60
2022-12-11T16:25:21.570Z,-4.60
2022-12-11T16:27:48.606Z,-4.60
2022-12-11T16:30:15.498Z,-4.60
2022-12-11T16:32:42.672Z,-4.70
2022-12-11T16:35:09.794Z,-4.70
2022-12-11T16:37:36.791Z,-4.80
2022-12-11T16:40:06.535Z,-4.80
2022-12-11T16:42:33.476Z,-4.80
2022-12-11T16:45:08.650Z,-4.60
2022-12-11T16:47:35.565Z,-4.80
2022-12-11T16:50:02.452Z,-4.80
2022-12-11T16:52:29.298Z,-4.80
2022-12-11T16:54:56.939Z,-4.90
2022-12-11T16:57:23.916Z,-4.90
2022-12-11T16:59:50.765Z,-4.90
2022-12-11T17:02:17.861Z,-4.90
2022-12-11T17:04:47.023Z,-4.90
2022-12-11T17:07:17.607Z,-4.90
2022-12-11T17:09:44.576Z,-4.90
2022-12-11T17:12:11.398Z,-4.90
2022-12-11T17:14:38.178Z,-5.00
2022-12-11T17:17:05.027Z,-5.00
2022-12-11T17:19:31.781Z,-4.90
2022-12-11T17:21:59.099Z,-4.90
2022-12-11T17:24:26.028Z,-5.00
2022-12-11T17:26:53.122Z,-4.90
2022-12-11T17:29:21.273Z,-5.00
2022-12-11T17:31:48.695Z,-5.00
2022-12-11T17:34:16.065Z,-5.10
2022-12-11T17:36:43.071Z,-5.00
2022-12-11T17:39:10.148Z,-5.00
2022-12-11T17:41:36.951Z,-5.00
2022-12-11T17:44:03.779Z,-5.00
2022-12-11T17:46:30.644Z,-5.00
2022-12-11T17:49:00.215Z,-5.00
2022-12-11T17:51:27.344Z,-5.00
2022-12-11T17:53:55.871Z,-5.00
2022-12-11T17:56:23.123Z,-5.00
2022-12-11T17:58:50.595Z,-5.00
2022-12-11T18:01:17.810Z,-5.00
2022-12-11T18:03:44.931Z,-5.10
2022-12-11T18:06:13.490Z,-5.20
2022-12-11T18:08:40.995Z,-5.10
2022-12-11T18:11:09.334Z,-5.10
2022-12-11T18:13:36.340Z,-5.10
2022-12-11T18:16:04.582Z,-5.10
2022-12-11T18:18:31.445Z,-5.10
2022-12-11T18:20:58.425Z,-5.10
2022-12-11T18:23:25.768Z,-5.10
2022-12-11T18:25:52.720Z,-5.10
2022-12-11T18:28:20.167Z,-5.10
2022-12-11T18:30:47.555Z,-5.10
2022-12-11T18:33:14.508Z,-5.10
2022-12-11T18:35:41.482Z,-5.10
2022-12-11T18:38:08.880Z,-5.10
2022-12-11T18:40:35.827Z,-5.10
2022-12-11T18:43:02.986Z,-5.20
2022-12-11T18:45:30.547Z,-5.20
2022-12-11T18:47:57.433Z,-5.10
2022-12-11T18:50:24.390Z,-5.10
2022-12-11T18:52:55.252Z,-5.10
2022-12-11T18:55:22.254Z,-5.10
2022-12-11T18:57:49.203Z,-5.10
2022-12-11T19:00:17.096Z,-5.10
2022-12-11T19:02:44.240Z,-5.10
2022-12-11T19:05:11.891Z,-5.10
2022-12-11T19:07:39.204Z,-5.10
2022-12-11T19:10:06.612Z,-5.10
2022-12-11T19:12:34.383Z,-5.10
2022-12-11T19:15:01.309Z,-5.20
2022-12-11T19:17:28.740Z,-5.20
2022-12-11T19:19:55.732Z,-5.20
2022-12-11T19:22:22.610Z,-5.10
2022-12-11T19:24:49.436Z,-5.20
2022-12-11T19:27:16.516Z,-5.20
2022-12-11T19:29:43.702Z,-5.20
2022-12-11T19:32:10.583Z,-5.20
2022-12-11T19:34:38.653Z,-5.20
2022-12-11T19:37:05.923Z,-5.20
2022-12-11T19:39:32.871Z,-5.30
2022-12-11T19:41:59.813Z,-5.30
2022-12-11T19:44:26.841Z,-5.20
2022-12-11T19:46:53.808Z,-5.20
2022-12-11T19:49:20.985Z,-5.30
2022-12-11T19:51:48.158Z,-5.30
2022-12-11T19:54:16.357Z,-5.30
2022-12-11T19:56:43.901Z,-5.30
2022-12-11T19:59:13.974Z,-5.30
2022-12-11T20:01:41.184Z,-5.30
2022-12-11T20:04:10.417Z,-5.30
2022-12-11T20:06:39.163Z,-5.30
2022-12-11T20:09:07.507Z,-5.30
2022-12-11T20:11:34.569Z,-5.20
2022-12-11T20:14:01.443Z,-5.20
2022-12-11T20:17:01.549Z,-5.20
2022-12-11T20:19:15.208Z,-5.10
2022-12-11T20:21:42.484Z,-5.20
2022-12-11T20:24:10.192Z,-5.20
2022-12-11T20:26:38.401Z,-5.30
2022-12-11T20:29:07.475Z,-5.20
2022-12-11T20:31:35.415Z,-5.30
2022-12-11T20:34:02.583Z,-5.20
2022-12-11T20:36:29.431Z,-5.20
2022-12-11T20:38:56.481Z,-5.20
2022-12-11T20:41:24.419Z,-5.30
2022-12-11T20:43:53.391Z,-5.30
2022-12-11T20:46:21.043Z,-5.30
2022-12-11T20:48:48.549Z,-5.30
2022-12-11T20:51:19.677Z,-5.30
2022-12-11T20:53:57.474Z,-5.30
2022-12-11T20:56:25.099Z,-5.30
2022-12-11T20:58:52.269Z,-5.20
2022-12-11T21:01:20.830Z,-5.20
2022-12-11T21:03:48.001Z,-5.20
2022-12-11T21:06:18.837Z,-5.20
2022-12-11T21:08:45.852Z,-5.20
2022-12-11T21:11:13.040Z,-5.10
2022-12-11T21:13:39.953Z,-5.10
2022-12-11T21:16:07.957Z,-5.10
2022-12-11T21:18:34.874Z,-5.10
2022-12-11T21:21:01.717Z,-5.00
2022-12-11T21:23:28.610Z,-5.00
2022-12-11T21:25:55.650Z,-5.00
2022-12-11T21:28:22.668Z,-5.00
2022-12-11T21:30:49.711Z,-4.90
2022-12-11T21:33:16.609Z,-4.90
2022-12-11T21:35:43.525Z,-5.00
2022-12-11T21:38:10.330Z,-5.00
2022-12-11T21:40:37.175Z,-5.00
2022-12-11T21:43:04.113Z,-5.00
2022-12-11T21:46:00.593Z,-5.00
2022-12-11T21:48:21.721Z,-4.90
2022-12-11T21:50:48.604Z,-5.10
2022-12-11T21:53:15.507Z,-5.10
2022-12-11T21:55:42.539Z,-5.10
2022-12-11T21:58:09.572Z,-5.00
2022-12-11T22:00:37.729Z,-5.10
2022-12-11T22:03:05.199Z,-5.00
2022-12-11T22:05:32.181Z,-5.00
2022-12-11T22:07:59.064Z,-5.00
2022-12-11T22:10:25.946Z,-5.00
2022-12-11T22:12:52.819Z,-5.00
2022-12-11T22:15:19.685Z,-5.00
2022-12-11T22:17:46.738Z,-5.00
2022-12-11T22:20:13.713Z,-4.90
2022-12-11T22:22:40.516Z,-4.90
2022-12-11T22:25:07.991Z,-4.90
2022-12-11T22:27:35.580Z,-4.90
2022-12-11T22:30:02.629Z,-4.90
2022-12-11T22:32:29.555Z,-4.90
2022-12-11T22:34:57.941Z,-4.80
2022-12-11T22:37:25.101Z,-4.80
2022-12-11T22:39:52.086Z,-4.80
2022-12-11T22:42:18.959Z,-4.80
2022-12-11T22:44:45.759Z,-4.80
2022-12-11T22:47:12.657Z,-4.80
2022-12-11T22:49:39.501Z,-4.70
2022-12-11T22:52:06.339Z,-4.70
2022-12-11T22:54:33.291Z,-4.70
2022-12-11T22:57:00.076Z,-4.70
2022-12-11T22:59:26.872Z,-4.70
2022-12-11T23:01:53.698Z,-4.70
2022-12-11T23:04:20.501Z,-4.70
2022-12-11T23:06:47.741Z,-4.70
2022-12-11T23:09:14.574Z,-4.70
2022-12-11T23:11:41.942Z,-4.60
2022-12-11T23:14:11.124Z,-4.50
2022-12-11T23:16:38.034Z,-4.60
2022-12-11T23:19:05.120Z,-4.50
2022-12-11T23:21:32.573Z,-4.50
2022-12-11T23:23:59.641Z,-4.50
2022-12-11T23:26:27.372Z,-4.60
2022-12-11T23:28:55.325Z,-4.50
2022-12-11T23:31:22.295Z,-4.50
2022-12-11T23:33:49.189Z,-4.50
2022-12-11T23:36:16.144Z,-4.50
2022-12-11T23:38:43.208Z,-4.40
2022-12-11T23:41:11.654Z,-4.40
2022-12-11T23:43:38.829Z,-4.40
2022-12-11T23:46:08.103Z,-4.40
2022-12-11T23:48:35.182Z,-4.50
2022-12-11T23:51:02.576Z,-4.40
2022-12-11T23:53:30.574Z,-4.40
2022-12-11T23:56:02.018Z,-4.40
2022-12-11T23:58:28.848Z,-4.40
